Dover, Delaware
Current Conditions -  °F | °C
As of 11:58 PM on Friday 24 Oct 2014 (Local Time) from KDOV Reporting Station
Clear Clear  
Wind Chill: 55°   Ceiling: Unl
Heat Index: 55°   Visibility: 10mi
Dew Point: 39°   Wind: 8mph
Humidity: 56%   Direction: 290°WNW
Pressure: 29.88"   Gusts: NA
Location:  39.16°N, 75.52°W
Report Text: KDOV 250358Z AUTO 29007KT 10SM CLR 13/04 A2988 RMK AO2 SLP121 T01260041
Loading
Personal Weather Stations






























Interactive Weather Map
Tropical Storm Tracking
New forecast layout! Learn more

10-Day Weather Forecast

Advertisements
Track Severe Weather on mobile